Latest Weather Observations for Lismore Airport

IDN60801

Issued at 5:32 am EST Wednesday 8 July 2015 (issued every 30 minutes, with the page automatically refreshed every 10 minutes)

About weather observations | Map of weather stations | Latest weather observations for NSW | Other Formats
Station Details ID: 058214 Name: LISMORE AIRPORT AWS Lat: -28.83 Lon: 153.26 Height: 9.21 m
Data from the previous 72 hours. | See also: Recent months for locations in New South Wales
Date/Time
EST
Temp
°C
App
Temp
°C
Dew
Point
Rel
Hum
%
Delta-T
°C
Wind Press
QNH
hPa
Press
MSL
hPa
Rain
since 9 am
mm
Dir
 
Spd
km/h
Gust
km/h
Spd
kts
Gust
kts
08/05:30am 5.8 3.1 5.4 97 0.2 N 9 13 5 7 1024.0 1024.0 0.0
08/05:00am 4.4 1.7 3.8 96 0.2 NNE 7 11 4 6 1023.7 1023.7 0.0
08/04:30am 4.8 1.8 3.9 94 0.4 NNE 9 11 5 6 1023.4 1023.4 0.0
08/04:00am 4.5 1.8 3.6 94 0.4 NNE 7 9 4 5 1023.1 1023.1 0.0
08/03:30am 4.8 1.8 3.9 94 0.4 N 9 11 5 6 1023.1 1023.1 0.0
08/03:00am 4.8 1.8 4.1 95 0.3 NNE 9 11 5 6 1023.0 1023.0 0.0
08/02:30am 4.9 2.0 4.5 97 0.2 N 9 11 5 6 1022.8 1022.8 0.0
08/02:00am 4.3 0.8 3.7 96 0.2 N 11 13 6 7 1022.7 1022.7 0.0
08/01:30am 4.2 2.7 3.2 93 0.4 CALM 0 9 0 5 1022.8 1022.8 0.0
08/01:00am 5.1 2.5 4.4 95 0.3 NNE 7 9 4 5 1022.7 1022.7 0.0
08/12:30am 4.5 2.3 3.5 93 0.4 NE 4 7 2 4 1022.6 1022.6 0.0
08/12:00am 5.1 2.1 4.2 94 0.4 N 9 9 5 5 1022.4 1022.4 0.0
 
Date/Time
EST
Temp
°C
App
Temp
°C
Dew
Point
Rel
Hum
%
Delta-T
°C
Wind Press
QNH
hPa
Press
MSL
hPa
Rain
since 9 am
mm
Dir
 
Spd
km/h
Gust
km/h
Spd
kts
Gust
kts
07/11:30pm 4.9 2.2 3.9 93 0.4 NNE 7 7 4 4 1022.4 1022.4 0.0
07/11:00pm 5.1 2.5 3.0 86 0.9 N 6 9 3 5 1022.5 1022.5 0.0
07/10:30pm 6.3 5.1 4.5 88 0.8 CALM 0 0 0 0 1022.2 1022.2 0.0
07/10:00pm 7.2 6.2 5.5 89 0.8 CALM 0 0 0 0 1022.0 1022.0 0.0
07/09:30pm 7.3 5.1 5.4 88 0.8 N 6 9 3 5 1021.7 1021.7 0.0
07/09:00pm 7.9 7.1 6.4 90 0.7 CALM 0 2 0 1 1021.6 1021.6 0.0
07/08:30pm 7.1 6.0 5.3 88 0.8 CALM 0 0 0 0 1021.4 1021.4 0.0
07/08:00pm 7.6 5.4 5.2 85 1.1 N 6 7 3 4 1021.0 1021.0 0.0
07/07:30pm 7.6 5.1 4.9 83 1.2 N 7 9 4 5 1020.8 1020.8 0.0
07/07:00pm 8.2 5.5 5.7 84 1.1 N 9 9 5 5 1020.5 1020.5 0.0
07/06:30pm 8.9 7.5 5.6 80 1.5 N 2 9 1 5 1020.2 1020.2 0.0
07/06:00pm 10.1 9.2 5.9 75 1.9 CALM 0 0 0 0 1019.8 1019.8 0.0
07/05:30pm 10.9 8.5 5.4 69 2.5 W 7 9 4 5 1019.5 1019.5 0.0
07/05:00pm 14.4 11.7 5.7 56 4.1 SE 9 11 5 6 1019.0 1019.0 0.0
07/04:30pm 16.6 14.0 4.3 44 5.8 SSE 7 11 4 6 1018.5 1018.5 0.0
07/04:00pm 17.5 13.9 3.0 38 6.6 SSE 11 15 6 8 1018.1 1018.1 0.0
07/03:30pm 17.8 13.4 2.5 36 7.0 SSE 15 20 8 11 1017.9 1017.9 0.0
07/03:00pm 18.4 13.8 1.4 32 7.6 SSE 15 19 8 10 1017.9 1017.9 0.0
07/02:30pm 18.4 14.4 0.5 30 7.9 S 11 15 6 8 1017.7 1017.7 0.0
07/02:00pm 18.9 14.5 2.7 34 7.5 SSW 15 22 8 12 1017.5 1017.5 0.0
07/01:30pm 18.8 14.0 0.4 29 8.1 SSE 15 22 8 12 1017.6 1017.6 0.0
07/01:00pm 18.7 13.5 0.3 29 8.1 SSW 17 24 9 13 1017.7 1017.7 0.0
07/12:30pm 18.5 13.7 0.2 29 8.0 SSW 15 20 8 11 1017.9 1017.9 0.0
07/12:00pm 18.1 13.2 -0.2 29 7.9 S 15 19 8 10 1018.1 1018.1 0.0
07/11:30am 17.5 12.7 0.2 31 7.5 SW 15 22 8 12 1018.5 1018.5 0.0
07/11:00am 17.2 11.7 0.8 33 7.2 SSW 19 26 10 14 1018.8 1018.8 0.0
07/10:30am 16.9 11.8 1.0 34 7.0 SSW 17 20 9 11 1019.1 1019.1 0.0
07/10:00am 16.1 11.5 1.4 37 6.4 SSW 15 20 8 11 1019.3 1019.3 0.0
07/09:30am 14.7 14.3 8.2 65 3.2 CALM 0 0 0 0 1019.4 1019.4 0.0
07/09:00am 12.8 11.7 7.0 68 2.8 SSE 2 9 1 5 1019.3 1019.3 0.0
07/08:30am 11.2 9.8 7.1 76 2.0 SSE 4 9 2 5 1018.9 1018.9 0.0
07/08:00am 9.2 8.4 6.6 84 1.2 CALM 0 0 0 0 1018.4 1018.4 0.0
07/07:30am 7.1 6.1 5.4 89 0.8 CALM 0 0 0 0 1017.9 1017.9 0.0
07/07:00am 5.8 3.2 3.1 83 1.1 SSE 6 9 3 5 1017.4 1017.4 0.0
07/06:30am 8.2 5.4 5.1 81 1.4 NNE 9 11 5 6 1016.6 1016.6 0.0
07/06:00am 8.7 5.5 5.1 78 1.6 N 11 13 6 7 1016.3 1016.3 0.0
07/05:30am 9.3 6.4 4.9 74 2.0 NE 9 11 5 6 1016.0 1016.0 0.0
07/05:00am 10.2 8.0 6.0 75 1.9 NE 7 15 4 8 1015.7 1015.7 0.0
07/04:30am 9.2 7.1 5.9 80 1.5 ENE 6 9 3 5 1015.5 1015.5 0.0
07/04:00am 8.7 6.2 6.5 86 1.0 NE 9 11 5 6 1015.6 1015.6 0.0
07/03:30am 6.9 5.4 4.9 87 0.9 ENE 2 7 1 4 1015.9 1015.9 0.0
07/03:00am 5.9 3.5 4.5 91 0.6 ENE 6 11 3 6 1016.1 1016.1 0.0
07/02:30am 7.4 5.3 6.0 91 0.6 E 6 9 3 5 1016.3 1016.3 0.0
07/02:00am 8.2 5.8 6.8 91 0.6 NE 9 13 5 7 1016.2 1016.2 0.0
07/01:30am 8.4 5.7 7.3 93 0.5 NNE 11 15 6 8 1016.3 1016.3 0.0
07/01:00am 8.3 5.2 7.2 93 0.5 NNE 13 17 7 9 1016.3 1016.3 0.0
07/12:30am 8.9 5.9 7.8 93 0.5 NNE 13 17 7 9 1016.1 1016.1 0.0
07/12:00am 9.1 6.2 8.0 93 0.5 NNE 13 17 7 9 1016.2 1016.2 0.0
 
Date/Time
EST
Temp
°C
App
Temp
°C
Dew
Point
Rel
Hum
%
Delta-T
°C
Wind Press
QNH
hPa
Press
MSL
hPa
Rain
since 9 am
mm
Dir
 
Spd
km/h
Gust
km/h
Spd
kts
Gust
kts
06/11:30pm 9.3 6.8 8.1 92 0.6 NNE 11 13 6 7 1016.1 1016.1 0.0
06/11:00pm 9.6 7.1 8.2 91 0.7 NNE 11 15 6 8 1016.1 1016.1 0.0
06/10:30pm 9.8 7.0 8.4 91 0.7 N 13 17 7 9 1016.4 1016.4 0.0
06/10:00pm 10.5 7.8 8.9 90 0.8 N 13 17 7 9 1016.3 1016.3 0.0
06/09:30pm 10.0 6.8 8.3 89 0.8 N 15 17 8 9 1016.1 1016.1 0.0
06/09:00pm 10.4 8.3 8.3 87 1.0 NNE 9 11 5 6 1016.0 1016.0 0.0
06/08:30pm 10.2 7.8 8.5 89 0.8 N 11 13 6 7 1016.0 1016.0 0.0
06/08:00pm 11.7 9.3 8.7 82 1.5 N 11 15 6 8 1015.9 1015.9 0.0
06/07:30pm 12.6 11.3 9.2 80 1.7 NNE 6 7 3 4 1015.8 1015.8 0.0
06/07:00pm 11.2 9.6 7.9 80 1.6 N 6 13 3 7 1015.5 1015.5 0.0
06/06:30pm 13.1 11.1 8.6 74 2.2 N 9 13 5 7 1015.1 1015.1 0.0
06/06:00pm 13.6 11.3 8.9 73 2.4 NNW 11 19 6 10 1014.8 1014.8 0.0
06/05:30pm 16.5 13.7 8.7 60 4.0 NW 13 17 7 9 1014.3 1014.3 0.0
06/05:00pm 17.6 14.9 9.0 57 4.5 NW 13 17 7 9 1014.1 1014.1 0.0
06/04:30pm 19.7 17.7 10.1 54 5.2 NNW 11 15 6 8 1013.9 1013.9 0.0
06/04:00pm 21.5 18.7 10.0 48 6.2 NW 15 20 8 11 1013.9 1013.9 0.0
06/03:30pm 22.4 18.4 8.9 42 7.2 NNW 20 26 11 14 1013.8 1013.8 0.0
06/03:00pm 22.6 17.7 8.3 40 7.5 NW 24 32 13 17 1013.9 1013.9 0.0
06/02:30pm 22.8 18.0 8.9 41 7.4 NW 24 37 13 20 1014.1 1014.1 0.0
06/02:00pm 23.0 17.6 7.9 38 7.9 WNW 26 35 14 19 1014.2 1014.2 0.0
06/01:30pm 23.1 19.5 9.8 43 7.2 NW 19 30 10 16 1014.4 1014.4 0.0
06/01:00pm 23.0 19.7 9.4 42 7.3 NW 17 30 9 16 1014.9 1014.9 0.0
06/12:30pm 22.7 18.7 9.1 42 7.3 NW 20 30 11 16 1015.5 1015.5 0.0
06/12:00pm 21.9 17.5 7.3 39 7.5 NW 20 37 11 20 1015.9 1015.9 0.0
06/11:30am 21.6 16.7 8.5 43 6.9 NW 24 33 13 18 1016.4 1016.4 0.0
06/11:00am 20.6 17.8 10.1 51 5.7 NW 15 20 8 11 1017.0 1017.0 0.0
06/10:30am 18.9 18.6 12.6 67 3.5 NE 6 9 3 5 1017.5 1017.5 0.0
06/10:00am 16.4 15.6 11.8 74 2.5 N 7 9 4 5 1017.9 1017.9 0.0
06/09:30am 13.5 12.1 10.9 84 1.4 NNE 9 11 5 6 1018.2 1018.2 0.0
06/09:00am 11.2 9.4 9.6 90 0.8 N 9 11 5 6 1018.4 1018.4 0.2
06/08:30am 9.6 7.2 8.7 94 0.4 NNE 11 13 6 7 1018.4 1018.4 0.2
06/08:00am 8.1 5.4 7.5 96 0.3 N 11 13 6 7 1018.4 1018.4 0.2
06/07:30am 6.9 4.0 6.6 98 0.1 NNE 11 13 6 7 1018.4 1018.4 0.2
06/07:00am 5.9 2.8 5.5 97 0.2 NNE 11 15 6 8 1018.3 1018.3 0.2
06/06:43am 5.9 3.2 5.5 97 0.2 NNE 9 11 5 6 1018.2 1018.2 0.2
06/06:30am 5.8 2.7 5.4 97 0.2 NNE 11 13 6 7 1018.2 1018.2 0.2
06/06:00am 5.5 2.3 4.9 96 0.3 NNE 11 15 6 8 1018.2 1018.2 0.2
06/05:46am 6.2 2.8 5.8 97 0.2 N 13 15 7 8 1018.2 1018.2 0.2
06/05:30am 6.4 3.8 6.0 97 0.2 NNE 9 13 5 7 1018.2 1018.2 0.2
06/05:00am 6.6 4.0 6.2 97 0.2 NNE 9 11 5 6 1018.1 1018.1 0.2
06/04:50am 6.7 3.8 6.3 97 0.2 NNE 11 13 6 7 1018.1 1018.1 0.2
06/04:30am 6.4 3.4 5.8 96 0.3 N 11 15 6 8 1018.2 1018.2 0.2
06/04:23am 6.5 3.1 5.9 96 0.3 N 13 17 7 9 1018.2 1018.2 0.2
06/04:00am 7.0 3.7 6.4 96 0.3 NNE 13 15 7 8 1018.3 1018.3 0.2
06/03:34am 7.4 3.9 7.0 97 0.2 N 15 17 8 9 1018.5 1018.5 0.2
06/03:30am 7.2 3.9 6.6 96 0.3 N 13 17 7 9 1018.5 1018.5 0.2
06/03:16am 7.4 4.2 6.8 96 0.3 N 13 15 7 8 1018.5 1018.5 0.2
06/03:00am 7.9 5.2 7.3 96 0.3 N 11 13 6 7 1018.6 1018.6 0.2
06/02:30am 8.0 4.6 7.6 97 0.2 N 15 17 8 9 1019.0 1019.0 0.2
06/02:00am 8.3 5.3 7.7 96 0.3 NNE 13 15 7 8 1019.3 1019.3 0.2
06/01:30am 8.7 5.8 8.3 97 0.2 N 13 17 7 9 1019.6 1019.6 0.2
06/01:00am 8.2 5.9 7.3 94 0.4 N 9 13 5 7 1019.7 1019.7 0.2
06/12:30am 9.5 6.8 8.9 96 0.3 N 13 17 7 9 1019.8 1019.8 0.2
06/12:00am 9.2 6.0 8.4 95 0.4 N 15 17 8 9 1020.0 1020.0 0.2
 
Date/Time
EST
Temp
°C
App
Temp
°C
Dew
Point
Rel
Hum
%
Delta-T
°C
Wind Press
QNH
hPa
Press
MSL
hPa
Rain
since 9 am
mm
Dir
 
Spd
km/h
Gust
km/h
Spd
kts
Gust
kts
05/11:30pm 9.8 7.9 8.9 94 0.4 NNE 9 11 5 6 1020.2 1020.2 0.2
05/11:00pm 9.7 7.7 8.6 93 0.5 N 9 11 5 6 1020.4 1020.4 0.2
05/10:30pm 10.6 9.2 9.4 92 0.6 NNE 7 11 4 6 1020.6 1020.6 0.2
05/10:00pm 10.8 9.1 9.7 93 0.6 NNE 9 11 5 6 1020.6 1020.6 0.2
05/09:30pm 10.7 8.9 9.5 92 0.6 N 9 13 5 7 1020.4 1020.4 0.2
05/09:00pm 11.2 9.1 9.6 90 0.8 N 11 13 6 7 1020.2 1020.2 0.2
05/08:30pm 11.7 11.0 10.1 90 0.8 NNE 4 11 2 6 1020.2 1020.2 0.2
05/08:00pm 12.5 9.1 10.7 89 0.9 NNW 19 22 10 12 1019.9 1019.9 0.2
05/07:30pm 12.3 9.2 10.2 87 1.1 NNW 17 19 9 10 1019.6 1019.6 0.2
05/07:00pm 12.5 9.8 10.2 86 1.2 NNW 15 19 8 10 1019.5 1019.5 0.2
05/06:30pm 13.2 10.3 9.8 80 1.7 NNW 15 17 8 9 1019.4 1019.4 0.2
05/06:00pm 13.1 10.4 8.8 75 2.2 NNW 13 15 7 8 1019.1 1019.1 0.2
05/05:30pm 14.6 12.5 9.8 73 2.5 N 11 13 6 7 1019.0 1019.0 0.2
05/05:00pm 16.8 15.0 9.5 62 3.8 NNE 9 11 5 6 1018.9 1018.9 0.2
05/04:30pm 18.0 15.4 9.4 57 4.5 NNE 13 13 7 7 1019.0 1019.0 0.2
05/04:00pm 19.6 17.1 9.8 53 5.2 N 13 17 7 9 1018.9 1018.9 0.2
05/03:30pm 20.5 17.5 9.4 49 5.9 NNW 15 20 8 11 1018.9 1018.9 0.2
05/03:00pm 21.6 18.9 8.8 44 6.8 NNW 13 20 7 11 1018.9 1018.9 0.2
05/02:30pm 20.9 17.7 9.8 49 6.0 NNW 17 24 9 13 1019.0 1019.0 0.2
05/02:00pm 21.7 17.3 6.4 37 7.7 NW 19 28 10 15 1019.2 1019.2 0.2
05/01:30pm 22.0 19.2 7.0 38 7.7 W 11 19 6 10 1019.3 1019.3 0.2
05/01:00pm 20.5 17.0 8.8 47 6.1 W 17 24 9 13 1019.6 1019.6 0.2
05/12:30pm 21.4 17.1 8.0 42 7.0 NW 20 28 11 15 1020.0 1020.0 0.2
05/12:00pm 21.2 17.8 7.8 42 6.9 WNW 15 24 8 13 1020.5 1020.5 0.0
05/11:30am 20.1 18.9 11.6 58 4.7 N 9 15 5 8 1021.3 1021.3 0.0
05/11:00am 18.8 18.8 12.5 67 3.5 ENE 4 9 2 5 1021.8 1021.8 0.0
05/10:30am 16.9 17.8 12.8 77 2.3 CALM 0 0 0 0 1022.2 1022.2 0.0
05/10:00am 15.0 14.9 12.0 82 1.6 N 4 7 2 4 1022.5 1022.5 0.0
05/09:30am 13.3 12.1 11.7 90 0.9 N 9 13 5 7 1022.7 1022.7 0.0
05/09:01am 11.8 10.5 11.2 96 0.3 NNE 9 13 5 7 1022.7 1022.7 0.0
05/09:00am 11.6 10.2 10.8 95 0.4 NNE 9 13 5 7 1022.7 1022.7 0.0
05/08:55am 11.3 10.2 10.8 97 0.3 NNE 7 9 4 5 1022.7 1022.7 0.0
05/08:38am 10.1 8.4 9.8 98 0.2 NNE 9 13 5 7 1022.7 1022.7 0.0
05/08:30am 10.0 8.3 9.9 99 0.1 N 9 11 5 6 1022.8 1022.8 0.0
05/08:19am 9.6 7.8 9.6 100 0.0 N 9 13 5 7 1022.8 1022.8 0.0
05/08:00am 8.5 6.8 8.4 99 0.0 N 7 11 4 6 1022.7 1022.7 0.0
05/07:48am 8.1 5.9 8.0 99 0.0 NNE 9 13 5 7 1022.5 1022.5 0.0
05/07:34am 7.8 7.3 7.7 99 0.0 CALM 0 0 0 0 1022.5 1022.5 0.0
05/07:32am 7.7 7.1 7.6 99 0.0 CALM 0 0 0 0 1022.4 1022.4 0.0
05/07:31am 7.7 7.1 7.6 99 0.0 CALM 0 0 0 0 1022.4 1022.4 0.0
05/07:30am 7.7 7.1 7.6 99 0.0 CALM 0 0 0 0 1022.5 1022.5 0.0
05/07:19am 7.6 7.0 7.5 99 0.0 CALM 0 0 0 0 1022.4 1022.4 0.0
05/07:18am 7.6 7.0 7.5 99 0.0 CALM 0 0 0 0 1022.4 1022.4 0.0
05/07:14am 7.4 6.8 7.3 99 0.0 CALM 0 0 0 0 1022.4 1022.4 0.0
05/07:13am 7.3 6.7 7.2 99 0.0 CALM 0 0 0 0 1022.4 1022.4 0.0
05/07:09am 7.2 6.5 7.1 99 0.0 CALM 0 0 0 0 1022.4 1022.4 0.0
05/07:00am 7.0 6.2 6.7 98 0.1 CALM 0 0 0 0 1022.4 1022.4 0.0
05/06:30am 6.1 5.1 5.7 97 0.2 CALM 0 0 0 0 1022.1 1022.1 0.0
05/06:00am 5.9 4.9 5.5 97 0.2 CALM 0 0 0 0 1021.8 1021.8 0.0

Other Formats:

Comma delimited format used in spreadsheet applications
http://www.bom.gov.au/fwo/IDN60801/IDN60801.94572.axf

JavaScript Object Notation format (JSON) in row-major order
http://www.bom.gov.au/fwo/IDN60801/IDN60801.94572.json